createdAt,value
2023-05-11T00:02:10.222Z,17.07
2023-05-11T00:04:40.329Z,17.02
2023-05-11T00:07:10.277Z,16.99
2023-05-11T00:09:42.777Z,16.97
2023-05-11T00:12:13.958Z,16.96
2023-05-11T00:14:45.065Z,16.94
2023-05-11T00:17:14.777Z,16.87
2023-05-11T00:19:44.741Z,16.82
2023-05-11T00:22:14.908Z,16.81
2023-05-11T00:24:44.676Z,16.81
2023-05-11T00:27:13.938Z,16.78
2023-05-11T00:29:43.152Z,16.73
2023-05-11T00:32:12.613Z,16.74
2023-05-11T00:34:41.707Z,16.72
2023-05-11T00:37:10.573Z,16.70
2023-05-11T00:39:41.124Z,16.64
2023-05-11T00:42:12.051Z,16.63
2023-05-11T00:44:41.568Z,16.57
2023-05-11T00:47:10.695Z,16.50
2023-05-11T00:49:40.541Z,16.42
2023-05-11T00:52:10.161Z,16.36
2023-05-11T00:54:41.250Z,16.36
2023-05-11T00:57:10.512Z,16.33
2023-05-11T00:59:39.640Z,16.35
2023-05-11T01:02:09.078Z,16.30
2023-05-11T01:04:39.347Z,16.30
2023-05-11T01:07:17.569Z,16.29
2023-05-11T01:10:03.284Z,16.21
2023-05-11T01:12:53.975Z,16.02
2023-05-11T01:15:40.771Z,15.84
2023-05-11T01:18:34.684Z,15.78
2023-05-11T01:21:05.364Z,15.65
2023-05-11T01:24:12.109Z,15.62
2023-05-11T01:27:16.302Z,15.53
2023-05-11T01:29:46.380Z,15.44
2023-05-11T01:32:26.346Z,15.45
2023-05-11T01:35:19.454Z,15.38
2023-05-11T01:37:54.083Z,15.34
2023-05-11T01:40:28.609Z,15.33
2023-05-11T01:43:02.388Z,15.34
2023-05-11T01:45:36.860Z,15.32
2023-05-11T01:48:12.857Z,15.32
2023-05-11T01:50:44.266Z,15.36
2023-05-11T01:53:17.403Z,15.35
2023-05-11T01:55:48.982Z,15.26
2023-05-11T01:58:19.658Z,15.23
2023-05-11T02:00:50.252Z,15.23
2023-05-11T02:03:20.949Z,15.19
2023-05-11T02:05:52.265Z,15.13
2023-05-11T02:08:23.293Z,15.13
2023-05-11T02:10:54.166Z,15.18
2023-05-11T02:13:24.586Z,15.18
2023-05-11T02:15:57.201Z,15.14
2023-05-11T02:18:27.342Z,15.07
2023-05-11T02:20:58.824Z,15.01
2023-05-11T02:23:28.444Z,15.00
2023-05-11T02:25:58.415Z,15.04
2023-05-11T02:28:27.533Z,15.05
2023-05-11T02:31:01.171Z,14.99
2023-05-11T02:33:35.519Z,14.89
2023-05-11T02:36:06.866Z,14.81
2023-05-11T02:38:38.491Z,14.75
2023-05-11T02:41:15.576Z,14.66
2023-05-11T02:43:51.732Z,14.52
2023-05-11T02:46:30.598Z,14.43
2023-05-11T02:49:03.366Z,14.36
2023-05-11T02:51:41.936Z,14.37
2023-05-11T02:54:13.007Z,14.36
2023-05-11T02:56:43.376Z,14.33
2023-05-11T02:59:13.546Z,14.37
2023-05-11T03:01:44.256Z,14.38
2023-05-11T03:04:13.956Z,14.40
2023-05-11T03:06:43.024Z,14.40
2023-05-11T03:09:12.439Z,14.38
2023-05-11T03:11:42.846Z,14.41
2023-05-11T03:14:11.971Z,14.46
2023-05-11T03:16:42.239Z,14.45
2023-05-11T03:19:11.716Z,14.39
2023-05-11T03:21:40.742Z,14.35
2023-05-11T03:24:11.057Z,14.40
2023-05-11T03:26:42.421Z,14.43
2023-05-11T03:29:13.427Z,14.46
2023-05-11T03:31:42.773Z,14.42
2023-05-11T03:34:12.122Z,14.38
2023-05-11T03:36:42.555Z,14.33
2023-05-11T03:39:12.835Z,14.31
2023-05-11T03:41:42.778Z,14.27
2023-05-11T03:44:13.781Z,14.24
2023-05-11T03:46:46.121Z,14.19
2023-05-11T03:49:16.416Z,14.15
2023-05-11T03:51:46.310Z,14.11
2023-05-11T03:54:15.212Z,14.01
2023-05-11T03:56:43.950Z,13.91
2023-05-11T03:59:16.818Z,13.80
2023-05-11T04:01:46.045Z,13.74
2023-05-11T04:04:15.186Z,13.75
2023-05-11T04:06:44.229Z,13.79
2023-05-11T04:09:13.192Z,13.77
2023-05-11T04:11:41.851Z,13.81
2023-05-11T04:14:10.677Z,13.90
2023-05-11T04:16:39.742Z,14.04
2023-05-11T04:19:09.004Z,14.13
2023-05-11T04:21:38.310Z,14.17
2023-05-11T04:24:07.604Z,14.21
2023-05-11T04:26:36.836Z,14.26
2023-05-11T04:29:06.322Z,14.32
2023-05-11T04:31:36.089Z,14.43
2023-05-11T04:34:08.203Z,14.48
2023-05-11T04:36:37.356Z,14.49
2023-05-11T04:39:07.795Z,14.57
2023-05-11T04:41:38.292Z,14.67
2023-05-11T04:44:07.767Z,14.65
2023-05-11T04:46:39.326Z,14.54
2023-05-11T04:49:08.601Z,14.49
2023-05-11T04:51:37.763Z,14.55
2023-05-11T04:54:07.036Z,14.62
2023-05-11T04:56:41.187Z,14.63
2023-05-11T04:59:11.468Z,14.60
2023-05-11T05:01:40.765Z,14.49
2023-05-11T05:04:10.322Z,14.42
2023-05-11T05:06:39.462Z,14.40
2023-05-11T05:09:08.698Z,14.41
2023-05-11T05:11:38.537Z,14.50
2023-05-11T05:14:07.646Z,14.65
2023-05-11T05:16:36.785Z,14.80
2023-05-11T05:19:07.058Z,14.95
2023-05-11T05:21:36.382Z,15.07
2023-05-11T05:24:06.510Z,15.19
2023-05-11T05:26:36.048Z,15.36
2023-05-11T05:29:07.013Z,15.52
2023-05-11T05:31:36.386Z,15.71
2023-05-11T05:34:05.188Z,15.96
2023-05-11T05:36:34.465Z,16.18
2023-05-11T05:39:04.327Z,16.23
2023-05-11T05:41:33.747Z,16.16
2023-05-11T05:44:03.705Z,16.12
2023-05-11T05:46:32.700Z,16.12
2023-05-11T05:49:02.204Z,16.26
2023-05-11T05:51:31.973Z,16.40
2023-05-11T05:54:00.899Z,16.47
2023-05-11T05:56:29.740Z,16.61
2023-05-11T05:58:58.926Z,16.85
2023-05-11T06:01:29.026Z,17.12
2023-05-11T06:03:59.073Z,17.29
2023-05-11T06:06:28.591Z,17.32
2023-05-11T06:08:57.786Z,17.31
2023-05-11T06:11:27.884Z,17.39
2023-05-11T06:13:56.977Z,17.50
2023-05-11T06:16:27.513Z,17.58
2023-05-11T06:18:56.830Z,17.69
2023-05-11T06:21:26.710Z,17.90
2023-05-11T06:23:55.865Z,18.16
2023-05-11T06:26:25.526Z,18.26
2023-05-11T06:28:54.710Z,18.31
2023-05-11T06:31:24.723Z,18.44
2023-05-11T06:33:53.938Z,18.57
2023-05-11T06:36:22.883Z,18.67
2023-05-11T06:38:51.836Z,18.73
2023-05-11T06:41:23.048Z,18.84
2023-05-11T06:43:51.905Z,18.89
2023-05-11T06:46:23.055Z,18.92
2023-05-11T06:48:53.678Z,19.02
2023-05-11T06:51:24.693Z,19.08
2023-05-11T06:53:56.196Z,19.06
2023-05-11T06:56:26.265Z,19.21
2023-05-11T06:58:55.729Z,19.64
2023-05-11T07:01:25.365Z,20.25
2023-05-11T07:03:57.283Z,20.65
2023-05-11T07:06:26.290Z,21.16
2023-05-11T07:08:55.852Z,21.59
2023-05-11T07:11:26.076Z,22.01
2023-05-11T07:13:55.587Z,22.26
2023-05-11T07:16:26.167Z,22.72
2023-05-11T07:18:55.369Z,23.26
2023-05-11T07:21:24.856Z,23.78
2023-05-11T07:23:54.764Z,24.28
2023-05-11T07:26:23.711Z,24.62
2023-05-11T07:28:53.183Z,24.97
2023-05-11T07:31:22.650Z,25.35
2023-05-11T07:33:51.739Z,25.74
2023-05-11T07:36:20.964Z,25.77
2023-05-11T07:38:50.084Z,26.07
2023-05-11T07:41:19.754Z,26.31
2023-05-11T07:43:48.819Z,26.73
2023-05-11T07:46:17.943Z,27.18
2023-05-11T07:48:47.336Z,27.60
2023-05-11T07:51:16.562Z,27.76
2023-05-11T07:53:45.941Z,27.31
2023-05-11T07:56:15.017Z,26.77
2023-05-11T07:58:44.327Z,26.66
2023-05-11T08:01:14.339Z,27.04
2023-05-11T08:03:43.579Z,27.42
2023-05-11T08:06:12.875Z,27.90
2023-05-11T08:08:42.931Z,28.32
2023-05-11T08:11:12.240Z,28.25
2023-05-11T08:13:42.478Z,28.53
2023-05-11T08:16:13.048Z,28.63
2023-05-11T08:18:42.443Z,28.49
2023-05-11T08:21:12.306Z,28.86
2023-05-11T08:23:42.935Z,29.33
2023-05-11T08:26:15.118Z,29.38
2023-05-11T08:28:45.347Z,29.92
2023-05-11T08:31:15.770Z,30.01
2023-05-11T08:33:45.991Z,30.44
2023-05-11T08:36:16.652Z,30.66
2023-05-11T08:38:46.414Z,30.84
2023-05-11T08:41:16.084Z,30.88
2023-05-11T08:43:49.315Z,29.97
2023-05-11T08:46:23.124Z,29.34
2023-05-11T08:48:52.412Z,30.00
2023-05-11T08:51:21.777Z,30.66
2023-05-11T08:53:50.792Z,31.28
2023-05-11T08:56:23.078Z,31.79
2023-05-11T08:58:56.245Z,31.10
2023-05-11T09:01:31.163Z,30.66
2023-05-11T09:04:00.694Z,30.87
2023-05-11T09:06:31.407Z,31.10
2023-05-11T09:09:00.725Z,31.03
2023-05-11T09:11:31.862Z,30.94
2023-05-11T09:14:01.051Z,31.52
2023-05-11T09:16:37.061Z,31.68
2023-05-11T09:19:07.142Z,32.22
2023-05-11T09:21:39.198Z,33.04
2023-05-11T09:24:14.096Z,33.29
2023-05-11T09:26:43.448Z,32.48
2023-05-11T09:29:12.777Z,31.62
2023-05-11T09:31:44.457Z,31.00
2023-05-11T09:34:17.345Z,30.82
2023-05-11T09:36:52.232Z,30.65
2023-05-11T09:42:15.172Z,32.22
2023-05-11T09:44:46.480Z,32.10
2023-05-11T09:47:19.766Z,31.56
2023-05-11T09:49:50.011Z,31.38
2023-05-11T09:52:23.080Z,31.91
2023-05-11T09:54:53.074Z,32.57
2023-05-11T09:57:27.792Z,32.98
2023-05-11T10:00:00.965Z,33.44
2023-05-11T10:02:33.768Z,33.88
2023-05-11T10:05:13.888Z,34.14
2023-05-11T10:07:43.682Z,34.68
2023-05-11T10:10:14.058Z,35.02
2023-05-11T10:12:43.577Z,34.39
2023-05-11T10:15:14.810Z,32.72
2023-05-11T10:17:45.135Z,31.13
2023-05-11T10:20:15.426Z,30.04
2023-05-11T10:22:46.775Z,29.01
2023-05-11T10:25:17.342Z,27.74
2023-05-11T10:27:47.611Z,26.49
2023-05-11T10:30:17.575Z,25.27
2023-05-11T10:32:47.734Z,23.96
2023-05-11T10:35:17.168Z,22.85
2023-05-11T10:37:47.114Z,22.05
2023-05-11T10:40:16.611Z,21.48
2023-05-11T10:43:14.702Z,21.11
2023-05-11T10:46:14.825Z,20.73
2023-05-11T10:48:50.848Z,20.73
2023-05-11T10:51:26.192Z,21.05
2023-05-11T10:54:22.791Z,21.47
2023-05-11T10:57:30.517Z,22.23
2023-05-11T11:00:10.836Z,24.51
2023-05-11T11:02:40.604Z,26.41
2023-05-11T11:05:14.614Z,27.80
2023-05-11T11:08:05.457Z,28.57
2023-05-11T11:10:41.098Z,28.52
2023-05-11T11:13:14.842Z,27.75
2023-05-11T11:15:58.001Z,27.10
2023-05-11T11:18:28.914Z,26.59
2023-05-11T11:20:59.756Z,26.12
2023-05-11T11:23:44.937Z,25.62
2023-05-11T11:26:19.431Z,25.25
2023-05-11T11:29:03.536Z,24.84
2023-05-11T11:31:35.103Z,24.59
2023-05-11T11:34:44.380Z,24.60
2023-05-11T11:37:15.552Z,24.78
2023-05-11T11:39:45.518Z,25.63
2023-05-11T11:42:20.401Z,26.78
2023-05-11T11:44:49.984Z,27.88
2023-05-11T11:47:24.222Z,28.90
2023-05-11T11:49:55.675Z,29.89
2023-05-11T11:52:29.822Z,30.75
2023-05-11T11:55:05.735Z,30.85
2023-05-11T11:57:36.246Z,30.34
2023-05-11T12:00:09.591Z,30.39
2023-05-11T12:02:44.235Z,30.00
2023-05-11T12:05:21.285Z,30.47
2023-05-11T12:07:52.867Z,31.12
2023-05-11T12:10:24.538Z,31.25
2023-05-11T12:12:59.917Z,31.08
2023-05-11T12:15:32.766Z,31.00
2023-05-11T12:18:03.740Z,30.81
2023-05-11T12:20:33.976Z,31.03
2023-05-11T12:23:03.772Z,31.07
2023-05-11T12:25:33.985Z,30.73
2023-05-11T12:28:03.415Z,30.41
2023-05-11T12:30:35.117Z,30.07
2023-05-11T12:33:10.023Z,30.18
2023-05-11T12:35:41.640Z,31.05
2023-05-11T12:38:12.119Z,31.94
2023-05-11T12:40:50.836Z,32.72
2023-05-11T12:43:22.395Z,32.84
2023-05-11T12:45:52.240Z,32.00
2023-05-11T12:48:22.992Z,31.14
2023-05-11T12:50:53.357Z,30.32
2023-05-11T12:53:25.120Z,29.69
2023-05-11T12:56:01.658Z,29.00
2023-05-11T12:58:44.155Z,27.81
2023-05-11T13:01:14.761Z,27.15
2023-05-11T13:03:48.620Z,26.80
2023-05-11T13:06:21.282Z,26.43
2023-05-11T13:08:50.466Z,26.16
2023-05-11T13:11:29.346Z,26.05
2023-05-11T13:13:58.646Z,25.91
2023-05-11T13:16:30.990Z,25.90
2023-05-11T13:19:05.882Z,25.79
2023-05-11T13:21:35.379Z,25.72
2023-05-11T13:24:06.323Z,25.69
2023-05-11T13:26:35.861Z,25.43
2023-05-11T13:29:11.256Z,25.18
2023-05-11T13:31:47.724Z,24.77
2023-05-11T13:34:19.725Z,24.36
2023-05-11T13:36:50.088Z,24.15
2023-05-11T13:39:20.273Z,24.18
2023-05-11T13:41:53.137Z,24.03
2023-05-11T13:44:27.023Z,23.77
2023-05-11T13:46:57.120Z,23.63
2023-05-11T13:49:27.070Z,23.39
2023-05-11T13:51:58.511Z,23.20
2023-05-11T13:54:33.467Z,22.91
2023-05-11T13:57:04.592Z,22.57
2023-05-11T13:59:36.492Z,22.29
2023-05-11T14:02:07.352Z,22.07
2023-05-11T14:04:37.747Z,21.90
2023-05-11T14:07:07.725Z,21.76
2023-05-11T14:09:38.183Z,21.59
2023-05-11T14:12:07.784Z,21.36
2023-05-11T14:14:38.148Z,21.27
2023-05-11T14:17:07.455Z,21.24
2023-05-11T14:19:37.029Z,21.21
2023-05-11T14:22:07.013Z,21.20
2023-05-11T14:24:37.681Z,21.13
2023-05-11T14:27:07.003Z,21.07
2023-05-11T14:29:39.562Z,21.03
2023-05-11T14:32:12.164Z,20.96
2023-05-11T14:34:43.251Z,20.92
2023-05-11T14:37:13.978Z,20.92
2023-05-11T14:39:43.332Z,20.95
2023-05-11T14:42:12.413Z,20.92
2023-05-11T14:44:42.484Z,20.93
2023-05-11T14:47:11.431Z,21.04
2023-05-11T14:49:40.868Z,21.13
2023-05-11T14:52:11.346Z,21.28
2023-05-11T14:54:43.954Z,21.41
2023-05-11T14:57:14.080Z,21.67
2023-05-11T14:59:55.472Z,21.94
2023-05-11T15:02:31.244Z,22.18
2023-05-11T15:05:02.289Z,22.27
2023-05-11T15:07:33.604Z,22.28
2023-05-11T15:10:05.698Z,22.27
2023-05-11T15:12:36.551Z,22.33
2023-05-11T15:15:06.725Z,22.48
2023-05-11T15:17:39.103Z,22.59
2023-05-11T15:20:11.296Z,22.72
2023-05-11T15:22:42.074Z,22.82
2023-05-11T15:25:15.100Z,22.82
2023-05-11T15:27:46.644Z,22.76
2023-05-11T15:30:17.373Z,22.79
2023-05-11T15:32:47.960Z,22.83
2023-05-11T15:35:17.894Z,22.81
2023-05-11T15:37:47.726Z,22.87
2023-05-11T15:40:17.279Z,22.91
2023-05-11T15:42:46.757Z,22.89
2023-05-11T15:45:16.087Z,22.87
2023-05-11T15:47:45.417Z,22.70
2023-05-11T15:50:16.181Z,22.61
2023-05-11T15:52:45.497Z,22.65
2023-05-11T15:55:15.920Z,22.58
2023-05-11T15:57:45.932Z,22.56
2023-05-11T16:00:16.922Z,22.57
2023-05-11T16:02:49.375Z,22.59
2023-05-11T16:05:19.045Z,22.52
2023-05-11T16:07:48.537Z,22.50
2023-05-11T16:10:19.053Z,22.46
2023-05-11T16:12:48.835Z,22.37
2023-05-11T16:15:18.243Z,22.25
2023-05-11T16:17:49.124Z,22.09
2023-05-11T16:20:18.438Z,22.02
2023-05-11T16:22:48.867Z,22.07
2023-05-11T16:25:18.624Z,22.07
2023-05-11T16:27:48.269Z,21.96
2023-05-11T16:30:24.924Z,21.89
2023-05-11T16:32:55.243Z,21.84
2023-05-11T16:35:24.589Z,21.93
2023-05-11T16:37:57.870Z,22.02
2023-05-11T16:40:27.425Z,22.05
2023-05-11T16:42:59.407Z,22.06
2023-05-11T16:45:29.500Z,21.90
2023-05-11T16:47:59.073Z,21.71
2023-05-11T16:50:28.750Z,21.56
2023-05-11T16:52:59.614Z,21.33
2023-05-11T16:55:31.472Z,21.18
2023-05-11T16:58:02.711Z,21.11
2023-05-11T17:00:34.298Z,20.99
2023-05-11T17:03:04.205Z,20.84
2023-05-11T17:05:34.296Z,20.72
2023-05-11T17:08:05.700Z,20.56
2023-05-11T17:10:36.959Z,20.39
2023-05-11T17:13:06.336Z,20.30
2023-05-11T17:15:35.919Z,20.30
2023-05-11T17:18:07.898Z,20.24
2023-05-11T17:20:37.851Z,20.19
2023-05-11T17:23:07.587Z,20.11
2023-05-11T17:25:37.259Z,20.06
2023-05-11T17:28:06.679Z,20.02
2023-05-11T17:30:55.990Z,19.91
2023-05-11T17:33:25.353Z,19.78
2023-05-11T17:35:54.801Z,19.73
2023-05-11T17:38:23.958Z,19.62
2023-05-11T17:40:53.579Z,19.53
2023-05-11T17:43:23.750Z,19.50
2023-05-11T17:45:53.691Z,19.47
2023-05-11T17:48:24.703Z,19.38
2023-05-11T17:50:54.060Z,19.30
2023-05-11T17:53:23.760Z,19.27
2023-05-11T17:55:53.699Z,19.21
2023-05-11T17:58:23.507Z,19.17
2023-05-11T18:00:52.884Z,19.14
2023-05-11T18:03:22.766Z,19.08
2023-05-11T18:05:52.823Z,19.01
2023-05-11T18:08:22.923Z,18.96
2023-05-11T18:10:52.579Z,18.95
2023-05-11T18:13:23.738Z,18.92
2023-05-11T18:16:01.312Z,18.84
2023-05-11T18:18:32.661Z,18.71
2023-05-11T18:21:09.948Z,18.58
2023-05-11T18:23:39.928Z,18.48
2023-05-11T18:26:09.314Z,18.47
2023-05-11T18:28:39.015Z,18.44
2023-05-11T18:31:08.934Z,18.38
2023-05-11T18:33:38.377Z,18.25
2023-05-11T18:36:08.623Z,18.14
2023-05-11T18:38:37.942Z,18.12
2023-05-11T18:41:09.239Z,18.14
2023-05-11T18:43:39.082Z,18.14
2023-05-11T18:46:10.352Z,18.13
2023-05-11T18:48:39.782Z,18.02
2023-05-11T18:51:12.245Z,17.97
2023-05-11T18:53:42.966Z,17.92
2023-05-11T18:56:13.148Z,17.86
2023-05-11T18:58:44.024Z,17.73
2023-05-11T19:01:13.708Z,17.65
2023-05-11T19:03:43.437Z,17.65
2023-05-11T19:06:15.092Z,17.63
2023-05-11T19:08:44.489Z,17.53
2023-05-11T19:11:14.996Z,17.43
2023-05-11T19:13:44.837Z,17.32
2023-05-11T19:16:14.346Z,17.39
2023-05-11T19:18:44.200Z,17.44
2023-05-11T19:21:15.430Z,17.46
2023-05-11T19:23:45.654Z,17.46
2023-05-11T19:26:18.090Z,17.49
2023-05-11T19:28:48.138Z,17.50
2023-05-11T19:31:17.962Z,17.40
2023-05-11T19:33:47.939Z,17.29
2023-05-11T19:36:17.767Z,17.29
2023-05-11T19:38:48.687Z,17.35
2023-05-11T19:41:20.097Z,17.38
2023-05-11T19:43:51.075Z,17.37
2023-05-11T19:46:22.805Z,17.32
2023-05-11T19:48:53.829Z,17.25
2023-05-11T19:51:27.644Z,17.19
2023-05-11T19:53:56.888Z,17.04
2023-05-11T19:56:25.793Z,16.92
2023-05-11T19:58:55.086Z,16.73
2023-05-11T20:01:24.200Z,16.72
2023-05-11T20:03:53.736Z,16.74
2023-05-11T20:06:23.628Z,16.73
2023-05-11T20:08:53.279Z,16.76
2023-05-11T20:11:22.350Z,16.85
2023-05-11T20:13:54.421Z,16.94
2023-05-11T20:16:24.523Z,17.00
2023-05-11T20:18:54.258Z,17.00
2023-05-11T20:21:24.698Z,16.99
2023-05-11T20:23:53.849Z,16.91
2023-05-11T20:26:23.239Z,16.86
2023-05-11T20:28:53.174Z,16.86
2023-05-11T20:31:23.356Z,16.91
2023-05-11T20:36:26.167Z,17.02
2023-05-11T20:38:56.218Z,16.99
2023-05-11T20:41:25.978Z,16.95
2023-05-11T20:43:56.337Z,16.96
2023-05-11T20:46:25.746Z,16.98
2023-05-11T20:48:54.561Z,16.94
2023-05-11T20:51:24.385Z,16.92
2023-05-11T20:53:54.086Z,16.94
2023-05-11T20:56:24.312Z,17.03
2023-05-11T20:58:55.678Z,17.08
2023-05-11T21:01:25.440Z,17.09
2023-05-11T21:03:54.840Z,17.02
2023-05-11T21:06:24.768Z,16.94
2023-05-11T21:08:53.658Z,16.92
2023-05-11T21:11:23.783Z,16.93
2023-05-11T21:13:53.555Z,16.89
2023-05-11T21:16:22.949Z,16.80
2023-05-11T21:18:55.159Z,16.72
2023-05-11T21:21:25.383Z,16.69
2023-05-11T21:23:55.189Z,16.65
2023-05-11T21:26:24.599Z,16.62
2023-05-11T21:28:54.167Z,16.59
2023-05-11T21:31:23.737Z,16.58
2023-05-11T21:33:53.267Z,16.53
2023-05-11T21:36:23.303Z,16.49
2023-05-11T21:38:52.471Z,16.46
2023-05-11T21:41:21.608Z,16.39
2023-05-11T21:43:51.510Z,16.33
2023-05-11T21:46:20.365Z,16.23
2023-05-11T21:48:50.204Z,16.24
2023-05-11T21:51:20.591Z,16.32
2023-05-11T21:53:51.680Z,16.31
2023-05-11T21:56:21.120Z,16.33
2023-05-11T21:58:50.495Z,16.38
2023-05-11T22:01:19.564Z,16.42
2023-05-11T22:03:48.862Z,16.47
2023-05-11T22:06:17.791Z,16.45
2023-05-11T22:08:46.863Z,16.42
2023-05-11T22:11:15.880Z,16.42
2023-05-11T22:13:45.092Z,16.41
2023-05-11T22:16:14.611Z,16.39
2023-05-11T22:18:44.025Z,16.34
2023-05-11T22:21:13.996Z,16.28
2023-05-11T22:23:43.192Z,16.20
2023-05-11T22:26:12.145Z,16.17
2023-05-11T22:28:41.790Z,16.14
2023-05-11T22:31:10.703Z,16.06
2023-05-11T22:33:39.728Z,16.01
2023-05-11T22:36:09.409Z,16.00
2023-05-11T22:38:38.932Z,16.03
2023-05-11T22:41:08.083Z,16.08
2023-05-11T22:43:36.847Z,16.11
2023-05-11T22:46:06.829Z,16.18
2023-05-11T22:48:35.820Z,16.29
2023-05-11T22:51:06.863Z,16.33
2023-05-11T22:53:37.869Z,16.30
2023-05-11T22:56:07.908Z,16.28
2023-05-11T22:58:37.372Z,16.28
2023-05-11T23:01:06.551Z,16.22
2023-05-11T23:03:36.268Z,16.15
2023-05-11T23:06:05.880Z,16.08
2023-05-11T23:08:34.887Z,16.06
2023-05-11T23:11:04.978Z,16.10
2023-05-11T23:13:34.024Z,16.09
2023-05-11T23:16:06.850Z,16.04
2023-05-11T23:18:37.876Z,15.98
2023-05-11T23:21:07.453Z,16.00
2023-05-11T23:23:37.324Z,16.00
2023-05-11T23:26:06.380Z,15.98
2023-05-11T23:28:35.869Z,15.94
2023-05-11T23:31:04.990Z,15.90
2023-05-11T23:33:34.090Z,15.85
2023-05-11T23:36:03.642Z,15.74
2023-05-11T23:38:33.042Z,15.59
2023-05-11T23:41:02.420Z,15.54
2023-05-11T23:43:32.107Z,15.58
2023-05-11T23:46:03.163Z,15.63
2023-05-11T23:48:32.562Z,15.63
2023-05-11T23:51:01.667Z,15.62
2023-05-11T23:53:30.898Z,15.66
2023-05-11T23:56:00.283Z,15.70
2023-05-11T23:58:29.307Z,15.67
